sensor_id;sensor_type;location;lat;lon;timestamp;P1;durP1;ratioP1;P2;durP2;ratioP2
38222;SDS011;24024;51.186;6.458;2023-07-31T00:00:53;9.25;;;4.10;;
38222;SDS011;24024;51.186;6.458;2023-07-31T00:03:20;10.93;;;5.22;;
38222;SDS011;24024;51.186;6.458;2023-07-31T00:05:47;11.48;;;3.83;;
38222;SDS011;24024;51.186;6.458;2023-07-31T00:08:16;9.02;;;3.75;;
38222;SDS011;24024;51.186;6.458;2023-07-31T00:10:43;10.13;;;3.95;;
38222;SDS011;24024;51.186;6.458;2023-07-31T00:13:09;9.02;;;3.78;;
38222;SDS011;24024;51.186;6.458;2023-07-31T00:15:41;14.27;;;4.22;;
38222;SDS011;24024;51.186;6.458;2023-07-31T00:18:07;11.07;;;3.70;;
38222;SDS011;24024;51.186;6.458;2023-07-31T00:20:34;10.60;;;3.80;;
38222;SDS011;24024;51.186;6.458;2023-07-31T00:23:03;11.77;;;3.97;;
38222;SDS011;24024;51.186;6.458;2023-07-31T00:25:30;9.02;;;3.45;;
38222;SDS011;24024;51.186;6.458;2023-07-31T00:27:56;11.18;;;4.13;;
38222;SDS011;24024;51.186;6.458;2023-07-31T00:30:23;9.18;;;3.38;;
38222;SDS011;24024;51.186;6.458;2023-07-31T00:32:55;11.77;;;3.75;;
38222;SDS011;24024;51.186;6.458;2023-07-31T00:35:22;13.07;;;4.70;;
38222;SDS011;24024;51.186;6.458;2023-07-31T00:37:51;9.98;;;3.97;;
38222;SDS011;24024;51.186;6.458;2023-07-31T00:40:18;12.40;;;3.65;;
38222;SDS011;24024;51.186;6.458;2023-07-31T00:42:47;11.27;;;3.75;;
38222;SDS011;24024;51.186;6.458;2023-07-31T00:45:16;10.57;;;3.72;;
38222;SDS011;24024;51.186;6.458;2023-07-31T00:47:45;8.70;;;3.40;;
38222;SDS011;24024;51.186;6.458;2023-07-31T00:50:17;10.40;;;3.72;;
38222;SDS011;24024;51.186;6.458;2023-07-31T00:52:43;11.27;;;3.90;;
38222;SDS011;24024;51.186;6.458;2023-07-31T00:55:10;10.02;;;3.80;;
38222;SDS011;24024;51.186;6.458;2023-07-31T00:57:39;9.98;;;3.60;;
38222;SDS011;24024;51.186;6.458;2023-07-31T01:00:08;10.82;;;3.75;;
38222;SDS011;24024;51.186;6.458;2023-07-31T01:02:35;10.02;;;3.33;;
38222;SDS011;24024;51.186;6.458;2023-07-31T01:05:05;9.40;;;3.60;;
38222;SDS011;24024;51.186;6.458;2023-07-31T01:07:47;7.85;;;2.97;;
38222;SDS011;24024;51.186;6.458;2023-07-31T01:10:21;8.48;;;3.17;;
38222;SDS011;24024;51.186;6.458;2023-07-31T01:13:04;11.45;;;3.92;;
38222;SDS011;24024;51.186;6.458;2023-07-31T01:15:32;13.27;;;3.63;;
38222;SDS011;24024;51.186;6.458;2023-07-31T01:18:02;11.35;;;3.97;;
38222;SDS011;24024;51.186;6.458;2023-07-31T01:20:31;11.38;;;4.03;;
38222;SDS011;24024;51.186;6.458;2023-07-31T01:26:13;12.10;;;3.97;;
38222;SDS011;24024;51.186;6.458;2023-07-31T01:31:22;12.73;;;3.85;;
38222;SDS011;24024;51.186;6.458;2023-07-31T01:33:52;13.00;;;4.18;;
38222;SDS011;24024;51.186;6.458;2023-07-31T01:36:20;9.40;;;3.65;;
38222;SDS011;24024;51.186;6.458;2023-07-31T01:38:48;15.40;;;4.45;;
38222;SDS011;24024;51.186;6.458;2023-07-31T01:41:16;10.38;;;3.75;;
38222;SDS011;24024;51.186;6.458;2023-07-31T01:43:44;14.82;;;4.45;;
38222;SDS011;24024;51.186;6.458;2023-07-31T01:46:12;14.70;;;4.35;;
38222;SDS011;24024;51.186;6.458;2023-07-31T01:48:49;11.25;;;3.92;;
38222;SDS011;24024;51.186;6.458;2023-07-31T01:51:16;10.45;;;4.05;;
38222;SDS011;24024;51.186;6.458;2023-07-31T01:53:45;16.13;;;4.97;;
38222;SDS011;24024;51.186;6.458;2023-07-31T01:56:12;9.75;;;4.03;;
38222;SDS011;24024;51.186;6.458;2023-07-31T01:58:41;8.85;;;3.50;;
38222;SDS011;24024;51.186;6.458;2023-07-31T02:01:08;12.43;;;4.60;;
38222;SDS011;24024;51.186;6.458;2023-07-31T02:03:34;13.60;;;4.18;;
38222;SDS011;24024;51.186;6.458;2023-07-31T02:06:01;13.70;;;4.10;;
38222;SDS011;24024;51.186;6.458;2023-07-31T02:08:28;13.23;;;3.97;;
38222;SDS011;24024;51.186;6.458;2023-07-31T02:10:57;13.55;;;4.43;;
38222;SDS011;24024;51.186;6.458;2023-07-31T02:13:26;9.38;;;3.83;;
38222;SDS011;24024;51.186;6.458;2023-07-31T02:15:53;11.35;;;3.95;;
38222;SDS011;24024;51.186;6.458;2023-07-31T02:18:22;11.18;;;4.00;;
38222;SDS011;24024;51.186;6.458;2023-07-31T02:20:52;13.98;;;4.03;;
38222;SDS011;24024;51.186;6.458;2023-07-31T02:23:19;13.43;;;3.92;;
38222;SDS011;24024;51.186;6.458;2023-07-31T02:25:46;15.43;;;4.47;;
38222;SDS011;24024;51.186;6.458;2023-07-31T02:28:15;10.60;;;4.05;;
38222;SDS011;24024;51.186;6.458;2023-07-31T02:30:45;10.68;;;3.95;;
38222;SDS011;24024;51.186;6.458;2023-07-31T02:33:12;13.13;;;3.70;;
38222;SDS011;24024;51.186;6.458;2023-07-31T02:35:42;12.90;;;4.03;;
38222;SDS011;24024;51.186;6.458;2023-07-31T02:38:11;8.13;;;3.70;;
38222;SDS011;24024;51.186;6.458;2023-07-31T02:40:40;13.35;;;4.38;;
38222;SDS011;24024;51.186;6.458;2023-07-31T02:43:09;11.02;;;3.85;;
38222;SDS011;24024;51.186;6.458;2023-07-31T02:45:36;8.65;;;3.55;;
38222;SDS011;24024;51.186;6.458;2023-07-31T02:48:03;12.82;;;4.68;;
38222;SDS011;24024;51.186;6.458;2023-07-31T02:50:30;10.00;;;4.05;;
38222;SDS011;24024;51.186;6.458;2023-07-31T02:52:59;11.73;;;3.92;;
38222;SDS011;24024;51.186;6.458;2023-07-31T02:55:26;9.85;;;4.05;;
38222;SDS011;24024;51.186;6.458;2023-07-31T02:57:53;12.20;;;3.85;;
38222;SDS011;24024;51.186;6.458;2023-07-31T03:00:19;11.18;;;4.10;;
38222;SDS011;24024;51.186;6.458;2023-07-31T03:02:46;10.93;;;4.63;;
38222;SDS011;24024;51.186;6.458;2023-07-31T03:05:16;15.07;;;4.65;;
38222;SDS011;24024;51.186;6.458;2023-07-31T03:07:45;11.43;;;4.00;;
38222;SDS011;24024;51.186;6.458;2023-07-31T03:10:14;11.13;;;3.92;;
38222;SDS011;24024;51.186;6.458;2023-07-31T03:12:45;11.57;;;3.90;;
38222;SDS011;24024;51.186;6.458;2023-07-31T03:15:15;14.63;;;6.25;;
38222;SDS011;24024;51.186;6.458;2023-07-31T03:17:44;11.60;;;4.40;;
38222;SDS011;24024;51.186;6.458;2023-07-31T03:20:13;10.88;;;4.13;;
38222;SDS011;24024;51.186;6.458;2023-07-31T03:22:45;12.45;;;4.57;;
38222;SDS011;24024;51.186;6.458;2023-07-31T03:25:14;11.68;;;3.95;;
38222;SDS011;24024;51.186;6.458;2023-07-31T03:27:41;12.10;;;4.32;;
38222;SDS011;24024;51.186;6.458;2023-07-31T03:30:08;11.68;;;4.22;;
38222;SDS011;24024;51.186;6.458;2023-07-31T03:32:35;10.07;;;4.47;;
38222;SDS011;24024;51.186;6.458;2023-07-31T03:35:02;9.95;;;4.00;;
38222;SDS011;24024;51.186;6.458;2023-07-31T03:37:29;12.77;;;4.20;;
38222;SDS011;24024;51.186;6.458;2023-07-31T03:39:58;15.15;;;4.90;;
38222;SDS011;24024;51.186;6.458;2023-07-31T03:42:25;8.75;;;4.00;;
38222;SDS011;24024;51.186;6.458;2023-07-31T03:44:54;10.23;;;4.22;;
38222;SDS011;24024;51.186;6.458;2023-07-31T03:47:21;12.68;;;4.15;;
38222;SDS011;24024;51.186;6.458;2023-07-31T03:49:50;9.40;;;4.00;;
38222;SDS011;24024;51.186;6.458;2023-07-31T03:52:17;10.10;;;4.35;;
38222;SDS011;24024;51.186;6.458;2023-07-31T03:54:43;12.57;;;4.38;;
38222;SDS011;24024;51.186;6.458;2023-07-31T03:57:12;12.88;;;5.00;;
38222;SDS011;24024;51.186;6.458;2023-07-31T03:59:39;11.93;;;4.72;;
38222;SDS011;24024;51.186;6.458;2023-07-31T04:02:06;13.00;;;4.45;;
38222;SDS011;24024;51.186;6.458;2023-07-31T04:04:32;10.52;;;4.20;;
38222;SDS011;24024;51.186;6.458;2023-07-31T04:07:07;13.15;;;4.63;;
38222;SDS011;24024;51.186;6.458;2023-07-31T04:09:36;10.88;;;4.03;;
38222;SDS011;24024;51.186;6.458;2023-07-31T04:12:02;10.82;;;4.28;;
38222;SDS011;24024;51.186;6.458;2023-07-31T04:14:29;10.10;;;4.35;;
38222;SDS011;24024;51.186;6.458;2023-07-31T04:16:56;12.18;;;4.20;;
38222;SDS011;24024;51.186;6.458;2023-07-31T04:19:23;10.55;;;4.32;;
38222;SDS011;24024;51.186;6.458;2023-07-31T04:21:53;12.98;;;4.32;;
38222;SDS011;24024;51.186;6.458;2023-07-31T04:24:24;10.00;;;4.43;;
38222;SDS011;24024;51.186;6.458;2023-07-31T04:26:51;10.88;;;4.93;;
38222;SDS011;24024;51.186;6.458;2023-07-31T04:29:19;12.82;;;5.00;;
38222;SDS011;24024;51.186;6.458;2023-07-31T04:31:47;11.43;;;4.78;;
38222;SDS011;24024;51.186;6.458;2023-07-31T04:34:16;9.88;;;4.50;;
38222;SDS011;24024;51.186;6.458;2023-07-31T04:36:45;12.40;;;4.82;;
38222;SDS011;24024;51.186;6.458;2023-07-31T04:39:12;9.90;;;4.25;;
38222;SDS011;24024;51.186;6.458;2023-07-31T04:41:39;9.32;;;3.60;;
38222;SDS011;24024;51.186;6.458;2023-07-31T04:44:08;11.02;;;3.90;;
38222;SDS011;24024;51.186;6.458;2023-07-31T04:46:37;9.43;;;4.18;;
38222;SDS011;24024;51.186;6.458;2023-07-31T04:49:07;9.63;;;4.13;;
38222;SDS011;24024;51.186;6.458;2023-07-31T04:51:36;10.52;;;4.10;;
38222;SDS011;24024;51.186;6.458;2023-07-31T04:54:02;12.30;;;4.63;;
38222;SDS011;24024;51.186;6.458;2023-07-31T04:56:29;11.50;;;5.28;;
38222;SDS011;24024;51.186;6.458;2023-07-31T04:58:56;10.43;;;4.18;;
38222;SDS011;24024;51.186;6.458;2023-07-31T05:01:25;9.65;;;4.50;;
38222;SDS011;24024;51.186;6.458;2023-07-31T05:03:51;8.95;;;4.30;;
38222;SDS011;24024;51.186;6.458;2023-07-31T05:06:18;9.45;;;4.50;;
38222;SDS011;24024;51.186;6.458;2023-07-31T05:08:46;10.07;;;5.28;;
38222;SDS011;24024;51.186;6.458;2023-07-31T05:11:15;8.48;;;4.20;;
38222;SDS011;24024;51.186;6.458;2023-07-31T05:13:44;11.15;;;4.03;;
38222;SDS011;24024;51.186;6.458;2023-07-31T05:16:16;8.95;;;4.10;;
38222;SDS011;24024;51.186;6.458;2023-07-31T05:18:45;8.30;;;4.55;;
38222;SDS011;24024;51.186;6.458;2023-07-31T05:21:14;8.95;;;4.45;;
38222;SDS011;24024;51.186;6.458;2023-07-31T05:23:40;8.18;;;4.10;;
38222;SDS011;24024;51.186;6.458;2023-07-31T05:26:07;8.35;;;4.22;;
38222;SDS011;24024;51.186;6.458;2023-07-31T05:28:38;8.63;;;3.97;;
38222;SDS011;24024;51.186;6.458;2023-07-31T05:31:07;8.38;;;4.07;;
38222;SDS011;24024;51.186;6.458;2023-07-31T05:33:40;7.97;;;3.72;;
38222;SDS011;24024;51.186;6.458;2023-07-31T05:36:09;7.65;;;4.18;;
38222;SDS011;24024;51.186;6.458;2023-07-31T05:38:36;12.07;;;4.70;;
38222;SDS011;24024;51.186;6.458;2023-07-31T05:41:04;6.63;;;3.80;;
38222;SDS011;24024;51.186;6.458;2023-07-31T05:43:34;7.63;;;3.55;;
38222;SDS011;24024;51.186;6.458;2023-07-31T05:46:04;7.50;;;3.83;;
38222;SDS011;24024;51.186;6.458;2023-07-31T05:48:32;7.72;;;3.70;;
38222;SDS011;24024;51.186;6.458;2023-07-31T05:51:01;9.27;;;3.97;;
38222;SDS011;24024;51.186;6.458;2023-07-31T05:53:30;9.05;;;3.80;;
38222;SDS011;24024;51.186;6.458;2023-07-31T05:55:57;9.15;;;4.05;;
38222;SDS011;24024;51.186;6.458;2023-07-31T05:58:26;10.02;;;4.60;;
38222;SDS011;24024;51.186;6.458;2023-07-31T06:00:55;8.30;;;4.03;;
38222;SDS011;24024;51.186;6.458;2023-07-31T06:03:21;7.00;;;3.40;;
38222;SDS011;24024;51.186;6.458;2023-07-31T06:05:48;10.98;;;4.68;;
38222;SDS011;24024;51.186;6.458;2023-07-31T06:08:15;8.82;;;4.15;;
38222;SDS011;24024;51.186;6.458;2023-07-31T06:10:42;13.27;;;4.30;;
38222;SDS011;24024;51.186;6.458;2023-07-31T06:13:11;8.07;;;4.20;;
38222;SDS011;24024;51.186;6.458;2023-07-31T06:15:38;8.10;;;3.72;;
38222;SDS011;24024;51.186;6.458;2023-07-31T06:18:05;11.00;;;3.95;;
38222;SDS011;24024;51.186;6.458;2023-07-31T06:20:34;6.97;;;3.50;;
38222;SDS011;24024;51.186;6.458;2023-07-31T06:25:35;6.57;;;3.53;;
38222;SDS011;24024;51.186;6.458;2023-07-31T06:28:04;7.28;;;3.55;;
38222;SDS011;24024;51.186;6.458;2023-07-31T06:30:31;6.63;;;3.63;;
38222;SDS011;24024;51.186;6.458;2023-07-31T06:33:03;10.60;;;3.80;;
38222;SDS011;24024;51.186;6.458;2023-07-31T06:35:29;6.97;;;3.80;;
38222;SDS011;24024;51.186;6.458;2023-07-31T06:37:56;8.35;;;3.63;;
38222;SDS011;24024;51.186;6.458;2023-07-31T06:40:26;7.57;;;3.83;;
38222;SDS011;24024;51.186;6.458;2023-07-31T06:42:55;9.77;;;3.80;;
38222;SDS011;24024;51.186;6.458;2023-07-31T06:45:24;10.55;;;4.80;;
38222;SDS011;24024;51.186;6.458;2023-07-31T06:47:50;9.07;;;3.78;;
38222;SDS011;24024;51.186;6.458;2023-07-31T06:50:17;9.98;;;3.70;;
38222;SDS011;24024;51.186;6.458;2023-07-31T06:52:44;9.88;;;4.13;;
38222;SDS011;24024;51.186;6.458;2023-07-31T06:55:19;12.88;;;3.35;;
38222;SDS011;24024;51.186;6.458;2023-07-31T06:57:47;8.10;;;3.47;;
38222;SDS011;24024;51.186;6.458;2023-07-31T07:00:15;10.95;;;3.58;;
38222;SDS011;24024;51.186;6.458;2023-07-31T07:02:45;10.85;;;3.40;;
38222;SDS011;24024;51.186;6.458;2023-07-31T07:05:16;7.35;;;3.80;;
38222;SDS011;24024;51.186;6.458;2023-07-31T07:07:46;9.25;;;3.55;;
38222;SDS011;24024;51.186;6.458;2023-07-31T07:12:43;6.78;;;3.33;;
38222;SDS011;24024;51.186;6.458;2023-07-31T07:15:09;7.03;;;3.67;;
38222;SDS011;24024;51.186;6.458;2023-07-31T07:17:39;8.52;;;3.75;;
38222;SDS011;24024;51.186;6.458;2023-07-31T07:20:06;6.50;;;3.42;;
38222;SDS011;24024;51.186;6.458;2023-07-31T07:22:35;10.88;;;3.97;;
38222;SDS011;24024;51.186;6.458;2023-07-31T07:25:03;9.68;;;3.00;;
38222;SDS011;24024;51.186;6.458;2023-07-31T07:27:31;8.52;;;3.53;;
38222;SDS011;24024;51.186;6.458;2023-07-31T07:30:00;8.23;;;3.30;;
38222;SDS011;24024;51.186;6.458;2023-07-31T07:32:27;9.10;;;3.30;;
38222;SDS011;24024;51.186;6.458;2023-07-31T07:34:54;7.25;;;3.20;;
38222;SDS011;24024;51.186;6.458;2023-07-31T07:37:22;7.15;;;2.90;;
38222;SDS011;24024;51.186;6.458;2023-07-31T07:39:49;8.50;;;3.40;;
38222;SDS011;24024;51.186;6.458;2023-07-31T07:42:18;7.38;;;3.08;;
38222;SDS011;24024;51.186;6.458;2023-07-31T07:44:44;5.60;;;2.90;;
38222;SDS011;24024;51.186;6.458;2023-07-31T07:47:13;6.43;;;3.40;;
38222;SDS011;24024;51.186;6.458;2023-07-31T07:49:40;5.80;;;3.13;;
38222;SDS011;24024;51.186;6.458;2023-07-31T07:52:07;6.75;;;3.13;;
38222;SDS011;24024;51.186;6.458;2023-07-31T07:54:33;7.82;;;3.00;;
38222;SDS011;24024;51.186;6.458;2023-07-31T07:57:00;7.07;;;2.80;;
38222;SDS011;24024;51.186;6.458;2023-07-31T07:59:27;10.23;;;3.53;;
38222;SDS011;24024;51.186;6.458;2023-07-31T08:01:54;7.53;;;3.28;;
38222;SDS011;24024;51.186;6.458;2023-07-31T08:04:23;6.80;;;3.47;;
38222;SDS011;24024;51.186;6.458;2023-07-31T08:06:52;7.60;;;2.65;;
38222;SDS011;24024;51.186;6.458;2023-07-31T08:09:19;6.28;;;3.00;;
38222;SDS011;24024;51.186;6.458;2023-07-31T08:11:48;8.50;;;3.15;;
38222;SDS011;24024;51.186;6.458;2023-07-31T08:14:15;7.10;;;3.17;;
38222;SDS011;24024;51.186;6.458;2023-07-31T08:16:49;6.93;;;2.88;;
38222;SDS011;24024;51.186;6.458;2023-07-31T08:19:16;5.90;;;2.85;;
38222;SDS011;24024;51.186;6.458;2023-07-31T08:21:45;7.28;;;3.58;;
38222;SDS011;24024;51.186;6.458;2023-07-31T08:24:12;6.45;;;2.80;;
38222;SDS011;24024;51.186;6.458;2023-07-31T08:26:39;7.47;;;2.83;;
38222;SDS011;24024;51.186;6.458;2023-07-31T08:29:09;6.20;;;2.67;;
38222;SDS011;24024;51.186;6.458;2023-07-31T08:31:39;5.63;;;2.90;;
38222;SDS011;24024;51.186;6.458;2023-07-31T08:34:05;6.40;;;2.80;;
38222;SDS011;24024;51.186;6.458;2023-07-31T08:36:32;5.35;;;2.92;;
38222;SDS011;24024;51.186;6.458;2023-07-31T08:39:01;10.25;;;3.83;;
38222;SDS011;24024;51.186;6.458;2023-07-31T08:41:29;6.53;;;2.90;;
38222;SDS011;24024;51.186;6.458;2023-07-31T08:43:56;9.32;;;3.30;;
38222;SDS011;24024;51.186;6.458;2023-07-31T08:46:23;7.57;;;3.10;;
38222;SDS011;24024;51.186;6.458;2023-07-31T08:48:51;5.60;;;3.00;;
38222;SDS011;24024;51.186;6.458;2023-07-31T08:51:19;11.38;;;6.18;;
38222;SDS011;24024;51.186;6.458;2023-07-31T08:53:46;7.57;;;3.15;;
38222;SDS011;24024;51.186;6.458;2023-07-31T08:56:16;6.35;;;3.28;;
38222;SDS011;24024;51.186;6.458;2023-07-31T08:58:44;6.75;;;3.15;;
38222;SDS011;24024;51.186;6.458;2023-07-31T09:01:12;7.43;;;3.42;;
38222;SDS011;24024;51.186;6.458;2023-07-31T09:03:39;5.18;;;2.97;;
38222;SDS011;24024;51.186;6.458;2023-07-31T09:06:10;6.72;;;3.58;;
38222;SDS011;24024;51.186;6.458;2023-07-31T09:08:39;7.45;;;3.05;;
38222;SDS011;24024;51.186;6.458;2023-07-31T09:11:08;6.88;;;3.50;;
38222;SDS011;24024;51.186;6.458;2023-07-31T09:13:35;8.45;;;3.70;;
38222;SDS011;24024;51.186;6.458;2023-07-31T09:16:03;7.15;;;3.15;;
38222;SDS011;24024;51.186;6.458;2023-07-31T09:18:30;5.97;;;3.33;;
38222;SDS011;24024;51.186;6.458;2023-07-31T09:21:02;8.82;;;3.60;;
38222;SDS011;24024;51.186;6.458;2023-07-31T09:26:34;8.65;;;3.30;;
38222;SDS011;24024;51.186;6.458;2023-07-31T09:29:05;8.45;;;2.97;;
38222;SDS011;24024;51.186;6.458;2023-07-31T09:31:41;6.88;;;3.17;;
38222;SDS011;24024;51.186;6.458;2023-07-31T09:34:09;8.80;;;3.10;;
38222;SDS011;24024;51.186;6.458;2023-07-31T09:36:43;5.70;;;2.78;;
38222;SDS011;24024;51.186;6.458;2023-07-31T09:39:17;6.68;;;3.10;;
38222;SDS011;24024;51.186;6.458;2023-07-31T09:41:55;7.57;;;3.40;;
38222;SDS011;24024;51.186;6.458;2023-07-31T09:44:37;7.75;;;3.45;;
38222;SDS011;24024;51.186;6.458;2023-07-31T09:47:06;6.93;;;3.33;;
38222;SDS011;24024;51.186;6.458;2023-07-31T09:49:46;7.35;;;3.35;;
38222;SDS011;24024;51.186;6.458;2023-07-31T09:52:13;7.60;;;2.95;;
38222;SDS011;24024;51.186;6.458;2023-07-31T09:54:42;7.95;;;3.10;;
38222;SDS011;24024;51.186;6.458;2023-07-31T09:57:14;7.03;;;4.07;;
38222;SDS011;24024;51.186;6.458;2023-07-31T09:59:46;6.85;;;3.13;;
38222;SDS011;24024;51.186;6.458;2023-07-31T10:02:15;7.43;;;3.00;;
38222;SDS011;24024;51.186;6.458;2023-07-31T10:04:53;10.82;;;3.42;;
38222;SDS011;24024;51.186;6.458;2023-07-31T10:07:26;8.60;;;3.60;;
38222;SDS011;24024;51.186;6.458;2023-07-31T10:09:57;6.03;;;2.83;;
38222;SDS011;24024;51.186;6.458;2023-07-31T10:14:58;6.55;;;3.03;;
38222;SDS011;24024;51.186;6.458;2023-07-31T10:17:26;7.65;;;3.60;;
38222;SDS011;24024;51.186;6.458;2023-07-31T10:19:56;9.98;;;3.70;;
38222;SDS011;24024;51.186;6.458;2023-07-31T10:22:25;6.15;;;3.08;;
38222;SDS011;24024;51.186;6.458;2023-07-31T10:24:52;7.70;;;3.40;;
38222;SDS011;24024;51.186;6.458;2023-07-31T10:27:23;5.88;;;3.08;;
38222;SDS011;24024;51.186;6.458;2023-07-31T10:29:51;7.03;;;3.22;;
38222;SDS011;24024;51.186;6.458;2023-07-31T10:32:22;4.83;;;2.97;;
38222;SDS011;24024;51.186;6.458;2023-07-31T10:34:53;8.07;;;3.08;;
38222;SDS011;24024;51.186;6.458;2023-07-31T10:37:29;7.57;;;3.10;;
38222;SDS011;24024;51.186;6.458;2023-07-31T10:40:03;7.78;;;3.03;;
38222;SDS011;24024;51.186;6.458;2023-07-31T10:42:51;6.55;;;2.85;;
38222;SDS011;24024;51.186;6.458;2023-07-31T10:45:35;8.43;;;3.15;;
38222;SDS011;24024;51.186;6.458;2023-07-31T10:48:04;6.80;;;2.85;;
38222;SDS011;24024;51.186;6.458;2023-07-31T10:50:47;5.05;;;2.80;;
38222;SDS011;24024;51.186;6.458;2023-07-31T10:53:28;3.90;;;2.40;;
38222;SDS011;24024;51.186;6.458;2023-07-31T10:56:02;4.97;;;2.63;;
38222;SDS011;24024;51.186;6.458;2023-07-31T10:58:34;6.20;;;3.25;;
38222;SDS011;24024;51.186;6.458;2023-07-31T11:01:03;4.45;;;2.42;;
38222;SDS011;24024;51.186;6.458;2023-07-31T11:03:45;5.25;;;2.50;;
38222;SDS011;24024;51.186;6.458;2023-07-31T11:06:15;4.82;;;2.20;;
38222;SDS011;24024;51.186;6.458;2023-07-31T11:08:45;3.97;;;2.30;;
38222;SDS011;24024;51.186;6.458;2023-07-31T11:11:17;4.57;;;2.47;;
38222;SDS011;24024;51.186;6.458;2023-07-31T11:13:46;5.43;;;2.03;;
38222;SDS011;24024;51.186;6.458;2023-07-31T11:16:21;4.32;;;2.17;;
38222;SDS011;24024;51.186;6.458;2023-07-31T11:18:49;5.97;;;3.05;;
38222;SDS011;24024;51.186;6.458;2023-07-31T11:21:18;5.32;;;2.67;;
38222;SDS011;24024;51.186;6.458;2023-07-31T11:23:53;6.35;;;2.60;;
38222;SDS011;24024;51.186;6.458;2023-07-31T11:26:25;7.38;;;3.25;;
38222;SDS011;24024;51.186;6.458;2023-07-31T11:28:52;12.63;;;5.03;;
38222;SDS011;24024;51.186;6.458;2023-07-31T11:31:18;14.05;;;5.60;;
38222;SDS011;24024;51.186;6.458;2023-07-31T11:33:45;4.45;;;2.70;;
38222;SDS011;24024;51.186;6.458;2023-07-31T11:36:16;6.53;;;3.08;;
38222;SDS011;24024;51.186;6.458;2023-07-31T11:38:44;8.25;;;2.90;;
38222;SDS011;24024;51.186;6.458;2023-07-31T11:41:13;9.43;;;3.00;;
38222;SDS011;24024;51.186;6.458;2023-07-31T11:43:47;10.77;;;2.22;;
38222;SDS011;24024;51.186;6.458;2023-07-31T11:46:14;6.97;;;2.30;;
38222;SDS011;24024;51.186;6.458;2023-07-31T11:48:41;5.20;;;2.15;;
38222;SDS011;24024;51.186;6.458;2023-07-31T11:51:10;4.55;;;2.53;;
38222;SDS011;24024;51.186;6.458;2023-07-31T11:53:41;5.78;;;2.45;;
38222;SDS011;24024;51.186;6.458;2023-07-31T11:56:12;4.63;;;2.65;;
38222;SDS011;24024;51.186;6.458;2023-07-31T11:58:45;4.70;;;2.10;;
38222;SDS011;24024;51.186;6.458;2023-07-31T12:01:14;4.20;;;2.22;;
38222;SDS011;24024;51.186;6.458;2023-07-31T12:03:44;4.43;;;1.92;;
38222;SDS011;24024;51.186;6.458;2023-07-31T12:06:12;4.50;;;2.20;;
38222;SDS011;24024;51.186;6.458;2023-07-31T12:08:38;7.55;;;2.70;;
38222;SDS011;24024;51.186;6.458;2023-07-31T12:11:08;4.60;;;1.98;;
38222;SDS011;24024;51.186;6.458;2023-07-31T12:13:38;5.70;;;2.40;;
38222;SDS011;24024;51.186;6.458;2023-07-31T12:16:05;5.03;;;2.17;;
38222;SDS011;24024;51.186;6.458;2023-07-31T12:18:33;4.97;;;2.35;;
38222;SDS011;24024;51.186;6.458;2023-07-31T12:21:02;5.00;;;2.42;;
38222;SDS011;24024;51.186;6.458;2023-07-31T12:23:32;7.32;;;2.58;;
38222;SDS011;24024;51.186;6.458;2023-07-31T12:28:37;5.10;;;2.35;;
38222;SDS011;24024;51.186;6.458;2023-07-31T12:31:04;4.53;;;2.70;;
38222;SDS011;24024;51.186;6.458;2023-07-31T12:33:34;4.90;;;2.58;;
38222;SDS011;24024;51.186;6.458;2023-07-31T12:36:10;4.78;;;2.85;;
38222;SDS011;24024;51.186;6.458;2023-07-31T12:38:38;4.35;;;2.58;;
38222;SDS011;24024;51.186;6.458;2023-07-31T12:41:05;5.30;;;3.03;;
38222;SDS011;24024;51.186;6.458;2023-07-31T12:43:34;6.70;;;3.72;;
38222;SDS011;24024;51.186;6.458;2023-07-31T12:46:01;9.80;;;3.35;;
38222;SDS011;24024;51.186;6.458;2023-07-31T12:48:29;6.22;;;3.80;;
38222;SDS011;24024;51.186;6.458;2023-07-31T12:50:57;8.13;;;3.20;;
38222;SDS011;24024;51.186;6.458;2023-07-31T12:53:25;6.43;;;3.28;;
38222;SDS011;24024;51.186;6.458;2023-07-31T12:55:52;7.00;;;3.00;;
38222;SDS011;24024;51.186;6.458;2023-07-31T12:58:19;5.32;;;2.78;;
38222;SDS011;24024;51.186;6.458;2023-07-31T13:00:46;5.75;;;2.95;;
38222;SDS011;24024;51.186;6.458;2023-07-31T13:03:14;5.85;;;3.40;;
38222;SDS011;24024;51.186;6.458;2023-07-31T13:05:42;6.60;;;3.40;;
38222;SDS011;24024;51.186;6.458;2023-07-31T13:08:09;6.45;;;3.55;;
38222;SDS011;24024;51.186;6.458;2023-07-31T13:10:37;6.13;;;3.58;;
38222;SDS011;24024;51.186;6.458;2023-07-31T13:13:04;6.25;;;3.55;;
38222;SDS011;24024;51.186;6.458;2023-07-31T13:15:34;6.88;;;2.85;;
38222;SDS011;24024;51.186;6.458;2023-07-31T13:18:01;5.85;;;2.72;;
38222;SDS011;24024;51.186;6.458;2023-07-31T13:20:30;6.30;;;3.00;;
38222;SDS011;24024;51.186;6.458;2023-07-31T13:23:00;7.60;;;3.40;;
38222;SDS011;24024;51.186;6.458;2023-07-31T13:25:26;7.15;;;3.45;;
38222;SDS011;24024;51.186;6.458;2023-07-31T13:27:56;6.95;;;3.90;;
38222;SDS011;24024;51.186;6.458;2023-07-31T13:32:53;5.97;;;3.08;;
38222;SDS011;24024;51.186;6.458;2023-07-31T13:35:20;9.30;;;3.40;;
38222;SDS011;24024;51.186;6.458;2023-07-31T13:37:47;6.38;;;3.47;;
38222;SDS011;24024;51.186;6.458;2023-07-31T13:40:18;6.70;;;3.40;;
38222;SDS011;24024;51.186;6.458;2023-07-31T13:42:45;9.32;;;3.63;;
38222;SDS011;24024;51.186;6.458;2023-07-31T13:45:17;8.95;;;3.35;;
38222;SDS011;24024;51.186;6.458;2023-07-31T13:47:44;6.75;;;3.20;;
38222;SDS011;24024;51.186;6.458;2023-07-31T13:50:10;6.88;;;3.40;;
38222;SDS011;24024;51.186;6.458;2023-07-31T13:52:41;8.43;;;4.00;;
38222;SDS011;24024;51.186;6.458;2023-07-31T13:55:11;9.13;;;4.00;;
38222;SDS011;24024;51.186;6.458;2023-07-31T13:57:38;5.68;;;3.05;;
38222;SDS011;24024;51.186;6.458;2023-07-31T14:00:07;9.05;;;3.20;;
38222;SDS011;24024;51.186;6.458;2023-07-31T14:02:37;5.25;;;3.13;;
38222;SDS011;24024;51.186;6.458;2023-07-31T14:05:06;5.68;;;3.00;;
38222;SDS011;24024;51.186;6.458;2023-07-31T14:07:36;13.13;;;5.30;;
38222;SDS011;24024;51.186;6.458;2023-07-31T14:10:03;8.30;;;3.58;;
38222;SDS011;24024;51.186;6.458;2023-07-31T14:12:32;6.25;;;2.92;;
38222;SDS011;24024;51.186;6.458;2023-07-31T14:15:08;5.57;;;2.85;;
38222;SDS011;24024;51.186;6.458;2023-07-31T14:17:36;5.75;;;2.80;;
38222;SDS011;24024;51.186;6.458;2023-07-31T14:20:05;5.68;;;3.30;;
38222;SDS011;24024;51.186;6.458;2023-07-31T14:22:35;5.57;;;2.85;;
38222;SDS011;24024;51.186;6.458;2023-07-31T14:25:04;6.60;;;3.28;;
38222;SDS011;24024;51.186;6.458;2023-07-31T14:27:31;6.25;;;3.03;;
38222;SDS011;24024;51.186;6.458;2023-07-31T14:29:58;7.75;;;3.17;;
38222;SDS011;24024;51.186;6.458;2023-07-31T14:32:26;5.47;;;2.90;;
38222;SDS011;24024;51.186;6.458;2023-07-31T14:34:52;6.57;;;2.83;;
38222;SDS011;24024;51.186;6.458;2023-07-31T14:37:20;4.28;;;2.50;;
38222;SDS011;24024;51.186;6.458;2023-07-31T14:39:47;7.55;;;3.15;;
38222;SDS011;24024;51.186;6.458;2023-07-31T14:42:19;5.70;;;3.40;;
38222;SDS011;24024;51.186;6.458;2023-07-31T14:44:49;6.95;;;3.20;;
38222;SDS011;24024;51.186;6.458;2023-07-31T14:47:18;7.10;;;3.63;;
38222;SDS011;24024;51.186;6.458;2023-07-31T14:49:44;6.85;;;3.70;;
38222;SDS011;24024;51.186;6.458;2023-07-31T14:52:11;10.07;;;4.22;;
38222;SDS011;24024;51.186;6.458;2023-07-31T14:54:38;6.25;;;3.30;;
38222;SDS011;24024;51.186;6.458;2023-07-31T14:57:07;6.72;;;3.78;;
38222;SDS011;24024;51.186;6.458;2023-07-31T14:59:34;6.88;;;3.17;;
38222;SDS011;24024;51.186;6.458;2023-07-31T15:02:00;9.30;;;3.70;;
38222;SDS011;24024;51.186;6.458;2023-07-31T15:04:27;6.97;;;3.67;;
38222;SDS011;24024;51.186;6.458;2023-07-31T15:06:54;8.75;;;3.42;;
38222;SDS011;24024;51.186;6.458;2023-07-31T15:09:24;8.13;;;4.20;;
38222;SDS011;24024;51.186;6.458;2023-07-31T15:11:50;6.47;;;3.50;;
38222;SDS011;24024;51.186;6.458;2023-07-31T15:14:19;6.05;;;3.45;;